Curaçao

Airport
ICAO code: 
TNCC
Summary
ICAO Region: 
CARSAM
Territory: 
Location: 
Willemstad, Curaçao, Netherlands Antilles,
Coordinates: 
Aerial View: 
12° 11' 20.04" N, 68° 57' 35.284" W
Airport WX: 
Tropical Revolving Storm
Metar
Observation
TNCC 181900Z 08009KT 050V110 9999 -SHRA SCT018TCU 30/23 Q1013 NOSIG
Station
Hato Airport, Curacao
Date/Time
2022-01-18 19:00:00
Wind direction
80°
Wind speed
09 kts
Lowest cloud amount
scattered clouds
Temperature
30°C
Dew point
23°C
Humidity
66%
QNH
1013 hPa
Weather condition
light showers rain

Description

Hato International Airport or Curaçao International Airport (originally named Dr. Albert Plesman International Airport) is the airport of Willemstad, Curaçao, Netherlands Antilles. It services to the Caribbean region, South America, North America and Europe.

Climatology

Tropical Savanna climate (Köppen climate classification Aw), rarely affected directly by tropical storms as it is on the southern fringe of the Atlantic/Caribbean Hurricane Belt.

Runways

Designator Length Width Surface Rops
11/29 3410 60 ASP Yes/Yes
Airport map: 
Aerial View: 

SKYbrary Partners:

Safety knowledge contributed by: